createdAt,value
2023-02-19T00:00:22.931Z,82.35
2023-02-19T00:01:22.952Z,82.45
2023-02-19T00:02:22.771Z,82.45
2023-02-19T00:03:22.817Z,82.43
2023-02-19T00:04:23.060Z,82.44
2023-02-19T00:05:22.741Z,82.49
2023-02-19T00:06:23.123Z,82.56
2023-02-19T00:07:22.880Z,82.57
2023-02-19T00:08:23.199Z,82.55
2023-02-19T00:09:22.671Z,82.55
2023-02-19T00:10:22.681Z,82.67
2023-02-19T00:11:22.640Z,82.66
2023-02-19T00:12:22.649Z,82.96
2023-02-19T00:13:22.641Z,83.01
2023-02-19T00:14:22.645Z,83.38
2023-02-19T00:15:22.653Z,83.48
2023-02-19T00:16:22.766Z,83.62
2023-02-19T00:17:22.584Z,83.62
2023-02-19T00:18:22.573Z,83.61
2023-02-19T00:19:22.567Z,83.72
2023-02-19T00:20:22.658Z,83.64
2023-02-19T00:21:22.533Z,83.59
2023-02-19T00:22:22.534Z,83.56
2023-02-19T00:23:22.679Z,83.53
2023-02-19T00:24:22.516Z,83.54
2023-02-19T00:25:22.654Z,83.56
2023-02-19T00:26:22.487Z,83.46
2023-02-19T00:27:22.451Z,83.43
2023-02-19T00:28:22.484Z,83.47
2023-02-19T00:29:22.458Z,83.43
2023-02-19T00:30:22.467Z,83.44
2023-02-19T00:31:22.774Z,83.33
2023-02-19T00:32:22.688Z,83.30
2023-02-19T00:33:22.391Z,83.33
2023-02-19T00:34:22.396Z,83.31
2023-02-19T00:35:22.376Z,83.39
2023-02-19T00:36:22.668Z,83.50
2023-02-19T00:37:22.582Z,83.61
2023-02-19T00:38:22.328Z,83.69
2023-02-19T00:39:22.667Z,83.79
2023-02-19T00:40:22.538Z,84.15
2023-02-19T00:41:22.318Z,84.41
2023-02-19T00:42:22.277Z,84.63
2023-02-19T00:43:22.288Z,84.70
2023-02-19T00:44:22.335Z,84.85
2023-02-19T00:45:22.284Z,84.83
2023-02-19T00:46:22.258Z,84.83
2023-02-19T00:47:22.477Z,84.90
2023-02-19T00:48:22.209Z,84.90
2023-02-19T00:49:22.291Z,85.00
2023-02-19T00:50:22.190Z,85.22
2023-02-19T00:51:22.208Z,85.31
2023-02-19T00:52:22.636Z,85.28
2023-02-19T00:53:22.389Z,85.25
2023-02-19T00:54:22.151Z,85.28
2023-02-19T00:55:22.684Z,85.46
2023-02-19T00:56:22.138Z,85.51
2023-02-19T00:57:22.148Z,85.50
2023-02-19T00:58:22.089Z,85.51
2023-02-19T00:59:22.130Z,85.48
2023-02-19T01:00:22.125Z,85.47
2023-02-19T01:01:22.200Z,85.59
2023-02-19T01:02:22.069Z,85.77
2023-02-19T01:03:22.235Z,86.06
2023-02-19T01:04:22.082Z,86.15
2023-02-19T01:05:22.086Z,86.33
2023-02-19T01:06:22.003Z,86.31
2023-02-19T01:07:22.017Z,86.47
2023-02-19T01:08:22.054Z,86.62
2023-02-19T01:09:22.396Z,86.55
2023-02-19T01:10:21.956Z,86.51
2023-02-19T01:11:22.472Z,86.46
2023-02-19T01:12:22.477Z,86.45
2023-02-19T01:13:22.518Z,86.53
2023-02-19T01:14:21.909Z,86.54
2023-02-19T01:15:21.931Z,86.49
2023-02-19T01:16:22.536Z,86.46
2023-02-19T01:17:22.390Z,86.47
2023-02-19T01:18:21.861Z,86.52
2023-02-19T01:19:21.876Z,86.58
2023-02-19T01:20:22.138Z,86.60
2023-02-19T01:21:22.636Z,86.58
2023-02-19T01:22:21.817Z,86.69
2023-02-19T01:23:21.826Z,86.70
2023-02-19T01:24:22.700Z,86.69
2023-02-19T01:25:22.710Z,86.71
2023-02-19T01:26:22.668Z,86.76
2023-02-19T01:27:21.784Z,86.79
2023-02-19T01:28:21.745Z,86.79
2023-02-19T01:29:21.739Z,86.88
2023-02-19T01:30:21.757Z,86.97
2023-02-19T01:31:21.879Z,87.04
2023-02-19T01:32:21.776Z,87.08
2023-02-19T01:33:21.716Z,87.11
2023-02-19T01:34:21.663Z,87.12
2023-02-19T01:35:21.694Z,87.11
2023-02-19T01:36:21.695Z,87.11
2023-02-19T01:37:21.707Z,87.16
2023-02-19T01:38:21.621Z,87.30
2023-02-19T01:39:21.634Z,87.35
2023-02-19T01:40:21.708Z,87.33
2023-02-19T01:41:21.598Z,87.37
2023-02-19T01:42:21.567Z,87.50
2023-02-19T01:43:21.582Z,87.51
2023-02-19T01:44:21.573Z,87.54
2023-02-19T01:45:21.713Z,87.61
2023-02-19T01:46:21.575Z,87.75
2023-02-19T01:47:21.547Z,87.93
2023-02-19T01:48:21.574Z,87.91
2023-02-19T01:49:21.509Z,87.91
2023-02-19T01:50:21.478Z,87.95
2023-02-19T01:51:21.502Z,88.00
2023-02-19T01:52:21.477Z,88.10
2023-02-19T01:53:21.466Z,88.19
2023-02-19T01:54:21.457Z,88.21
2023-02-19T01:55:21.430Z,88.19
2023-02-19T01:56:21.716Z,88.21
2023-02-19T01:57:21.727Z,88.22
2023-02-19T01:58:21.381Z,88.20
2023-02-19T01:59:21.404Z,88.27
2023-02-19T02:00:21.381Z,88.47
2023-02-19T02:01:21.362Z,88.61
2023-02-19T02:02:21.365Z,88.57
2023-02-19T02:03:21.330Z,88.67
2023-02-19T02:04:21.733Z,88.71
2023-02-19T02:05:21.336Z,88.76
2023-02-19T02:06:21.301Z,88.86
2023-02-19T02:07:21.293Z,88.91
2023-02-19T02:08:21.743Z,89.02
2023-02-19T02:09:21.295Z,89.18
2023-02-19T02:10:21.241Z,89.27
2023-02-19T02:11:21.275Z,89.34
2023-02-19T02:12:21.234Z,89.40
2023-02-19T02:13:21.255Z,89.50
2023-02-19T02:14:21.205Z,89.65
2023-02-19T02:15:21.317Z,89.65
2023-02-19T02:16:21.376Z,89.74
2023-02-19T02:17:21.377Z,89.83
2023-02-19T02:18:21.155Z,89.78
2023-02-19T02:19:21.162Z,89.82
2023-02-19T02:20:21.467Z,89.80
2023-02-19T02:21:21.146Z,89.84
2023-02-19T02:22:21.530Z,89.86
2023-02-19T02:23:21.108Z,89.90
2023-02-19T02:24:21.091Z,89.88
2023-02-19T02:25:21.590Z,89.90
2023-02-19T02:26:21.098Z,89.99
2023-02-19T02:27:21.081Z,90.01
2023-02-19T02:28:21.277Z,90.00
2023-02-19T02:29:21.756Z,90.02
2023-02-19T02:30:21.069Z,90.06
2023-02-19T02:31:21.182Z,90.09
2023-02-19T02:32:21.865Z,90.10
2023-02-19T02:33:21.004Z,90.17
2023-02-19T02:34:20.972Z,90.26
2023-02-19T02:35:20.978Z,90.31
2023-02-19T02:36:21.018Z,90.30
2023-02-19T02:37:21.048Z,90.28
2023-02-19T02:38:21.079Z,90.33
2023-02-19T02:39:21.112Z,90.36
2023-02-19T02:40:21.142Z,90.45
2023-02-19T02:41:21.208Z,90.53
2023-02-19T02:42:20.878Z,90.56
2023-02-19T02:43:20.890Z,90.61
2023-02-19T02:44:21.270Z,90.71
2023-02-19T02:45:20.849Z,90.76
2023-02-19T02:46:20.868Z,90.79
2023-02-19T02:47:21.371Z,90.81
2023-02-19T02:48:21.427Z,90.76
2023-02-19T02:49:20.810Z,90.82
2023-02-19T02:50:20.791Z,90.89
2023-02-19T02:51:20.797Z,90.93
2023-02-19T02:52:21.434Z,90.92
2023-02-19T02:53:20.797Z,90.89
2023-02-19T02:54:20.739Z,90.91
2023-02-19T02:55:20.769Z,90.99
2023-02-19T02:56:20.772Z,91.01
2023-02-19T02:57:20.721Z,90.99
2023-02-19T02:58:20.720Z,91.06
2023-02-19T02:59:20.693Z,91.11
2023-02-19T03:00:20.778Z,91.13
2023-02-19T03:01:20.806Z,91.13
2023-02-19T03:02:20.867Z,91.18
2023-02-19T03:03:20.779Z,91.17
2023-02-19T03:04:20.662Z,91.25
2023-02-19T03:05:20.790Z,91.38
2023-02-19T03:06:20.781Z,91.41
2023-02-19T03:07:20.632Z,91.47
2023-02-19T03:08:20.867Z,91.60
2023-02-19T03:09:20.596Z,91.60
2023-02-19T03:10:20.782Z,91.64
2023-02-19T03:11:20.710Z,91.68
2023-02-19T03:12:20.780Z,91.67
2023-02-19T03:13:20.546Z,91.64
2023-02-19T03:14:21.241Z,91.64
2023-02-19T03:15:20.506Z,91.64
2023-02-19T03:16:21.341Z,91.61
2023-02-19T03:17:20.792Z,91.63
2023-02-19T03:18:20.797Z,91.64
2023-02-19T03:19:20.798Z,91.67
2023-02-19T03:20:20.787Z,91.69
2023-02-19T03:21:20.806Z,91.71
2023-02-19T03:22:20.407Z,91.71
2023-02-19T03:23:20.435Z,91.71
2023-02-19T03:24:20.448Z,91.69
2023-02-19T03:25:20.486Z,91.69
2023-02-19T03:26:20.511Z,91.67
2023-02-19T03:27:20.590Z,91.70
2023-02-19T03:28:20.591Z,91.71
2023-02-19T03:29:20.623Z,91.71
2023-02-19T03:30:20.750Z,91.70
2023-02-19T03:31:20.417Z,91.70
2023-02-19T03:32:20.793Z,91.72
2023-02-19T03:33:20.727Z,91.70
2023-02-19T03:34:20.758Z,91.71
2023-02-19T03:35:20.714Z,91.74
2023-02-19T03:36:20.801Z,91.78
2023-02-19T03:37:20.647Z,91.77
2023-02-19T03:38:20.392Z,91.77
2023-02-19T03:39:20.798Z,91.77
2023-02-19T03:40:20.934Z,91.77
2023-02-19T03:41:20.308Z,91.75
2023-02-19T03:42:20.187Z,91.76
2023-02-19T03:43:20.193Z,91.74
2023-02-19T03:44:20.220Z,91.73
2023-02-19T03:45:20.252Z,91.74
2023-02-19T03:46:20.119Z,91.76
2023-02-19T03:47:20.321Z,91.78
2023-02-19T03:48:20.364Z,91.77
2023-02-19T03:49:20.112Z,91.78
2023-02-19T03:50:20.422Z,91.77
2023-02-19T03:51:20.460Z,91.80
2023-02-19T03:52:20.491Z,91.83
2023-02-19T03:53:20.081Z,91.80
2023-02-19T03:54:20.048Z,91.84
2023-02-19T03:55:20.052Z,91.85
2023-02-19T03:56:20.625Z,91.84
2023-02-19T03:57:20.331Z,91.86
2023-02-19T03:58:20.685Z,91.86
2023-02-19T03:59:20.716Z,91.87
2023-02-19T04:00:20.649Z,91.86
2023-02-19T04:01:20.799Z,91.87
2023-02-19T04:02:20.024Z,91.88
2023-02-19T04:03:20.304Z,91.91
2023-02-19T04:04:20.863Z,91.90
2023-02-19T04:05:19.948Z,91.91
2023-02-19T04:06:20.145Z,91.91
2023-02-19T04:07:20.826Z,91.92
2023-02-19T04:08:20.825Z,91.92
2023-02-19T04:09:20.435Z,91.92
2023-02-19T04:10:19.878Z,91.90
2023-02-19T04:11:19.857Z,91.92
2023-02-19T04:12:19.857Z,91.90
2023-02-19T04:13:19.850Z,91.88
2023-02-19T04:14:19.840Z,91.73
2023-02-19T04:15:19.855Z,91.58
2023-02-19T04:16:19.808Z,91.53
2023-02-19T04:17:19.834Z,91.46
2023-02-19T04:18:19.786Z,91.40
2023-02-19T04:19:19.835Z,91.36
2023-02-19T04:20:19.825Z,91.25
2023-02-19T04:21:19.840Z,91.15
2023-02-19T04:22:19.787Z,91.04
2023-02-19T04:23:19.751Z,90.98
2023-02-19T04:24:19.843Z,90.70
2023-02-19T04:25:19.840Z,90.50
2023-02-19T04:26:19.842Z,90.46
2023-02-19T04:27:19.697Z,90.36
2023-02-19T04:28:19.676Z,90.27
2023-02-19T04:29:19.658Z,90.28
2023-02-19T04:30:19.772Z,90.28
2023-02-19T04:31:19.815Z,90.18
2023-02-19T04:32:19.797Z,90.09
2023-02-19T04:33:19.853Z,90.08
2023-02-19T04:34:19.588Z,90.05
2023-02-19T04:35:19.575Z,89.96
2023-02-19T04:36:19.742Z,89.75
2023-02-19T04:37:19.846Z,89.69
2023-02-19T04:38:19.576Z,89.47
2023-02-19T04:39:19.592Z,89.47
2023-02-19T04:40:19.833Z,89.47
2023-02-19T04:41:19.514Z,89.39
2023-02-19T04:42:19.484Z,89.21
2023-02-19T04:43:19.849Z,89.08
2023-02-19T04:44:19.840Z,88.96
2023-02-19T04:45:19.842Z,88.90
2023-02-19T04:46:19.897Z,88.90
2023-02-19T04:47:19.446Z,88.85
2023-02-19T04:48:19.850Z,88.76
2023-02-19T04:49:19.504Z,88.73
2023-02-19T04:50:19.404Z,88.54
2023-02-19T04:51:19.825Z,88.43
2023-02-19T04:52:19.854Z,88.43
2023-02-19T04:53:19.859Z,88.37
2023-02-19T04:54:19.856Z,88.33
2023-02-19T04:55:19.339Z,88.34
2023-02-19T04:56:19.382Z,88.39
2023-02-19T04:57:19.409Z,88.41
2023-02-19T04:58:19.329Z,88.50
2023-02-19T04:59:19.281Z,88.57
2023-02-19T05:00:19.521Z,88.53
2023-02-19T05:01:19.328Z,88.44
2023-02-19T05:02:19.594Z,88.39
2023-02-19T05:03:19.242Z,88.35
2023-02-19T05:04:19.708Z,88.42
2023-02-19T05:05:19.225Z,88.43
2023-02-19T05:06:19.214Z,88.42
2023-02-19T05:07:19.212Z,88.49
2023-02-19T05:08:19.814Z,88.47
2023-02-19T05:09:19.172Z,88.43
2023-02-19T05:10:19.873Z,88.49
2023-02-19T05:11:19.149Z,88.48
2023-02-19T05:12:19.307Z,88.46
2023-02-19T05:13:19.163Z,88.49
2023-02-19T05:14:19.128Z,88.54
2023-02-19T05:15:19.119Z,88.51
2023-02-19T05:16:19.234Z,88.21
2023-02-19T05:17:19.094Z,88.16
2023-02-19T05:18:19.108Z,88.12
2023-02-19T05:19:19.325Z,88.11
2023-02-19T05:20:19.360Z,88.13
2023-02-19T05:21:19.032Z,88.11
2023-02-19T05:22:19.425Z,88.18
2023-02-19T05:23:19.446Z,88.22
2023-02-19T05:24:19.491Z,88.24
2023-02-19T05:25:18.989Z,88.27
2023-02-19T05:26:19.680Z,88.23
2023-02-19T05:27:18.972Z,88.10
2023-02-19T05:28:18.983Z,88.09
2023-02-19T05:29:18.968Z,88.15
2023-02-19T05:30:18.975Z,88.15
2023-02-19T05:31:19.824Z,88.07
2023-02-19T05:32:19.735Z,88.06
2023-02-19T05:33:18.904Z,87.99
2023-02-19T05:34:18.929Z,87.89
2023-02-19T05:35:18.869Z,87.86
2023-02-19T05:36:18.890Z,87.88
2023-02-19T05:37:18.845Z,87.89
2023-02-19T05:38:18.855Z,87.88
2023-02-19T05:39:18.859Z,87.89
2023-02-19T05:40:18.879Z,87.87
2023-02-19T05:41:18.809Z,87.88
2023-02-19T05:42:18.800Z,87.87
2023-02-19T05:43:18.786Z,87.87
2023-02-19T05:44:18.797Z,87.90
2023-02-19T05:45:18.781Z,87.86
2023-02-19T05:46:18.780Z,87.84
2023-02-19T05:47:19.189Z,87.85
2023-02-19T05:48:18.890Z,87.81
2023-02-19T05:49:18.717Z,87.74
2023-02-19T05:50:18.709Z,87.74
2023-02-19T05:51:18.707Z,87.75
2023-02-19T05:52:18.692Z,87.82
2023-02-19T05:53:18.660Z,87.83
2023-02-19T05:54:18.673Z,87.87
2023-02-19T05:55:19.464Z,87.88
2023-02-19T05:56:18.902Z,87.87
2023-02-19T05:57:18.618Z,87.89
2023-02-19T05:58:18.630Z,87.91
2023-02-19T05:59:18.593Z,87.92
2023-02-19T06:00:18.647Z,87.91
2023-02-19T06:01:18.588Z,87.94
2023-02-19T06:02:18.570Z,87.91
2023-02-19T06:03:18.773Z,87.92
2023-02-19T06:04:18.801Z,87.87
2023-02-19T06:05:18.520Z,87.75
2023-02-19T06:06:18.554Z,87.78
2023-02-19T06:07:18.509Z,87.84
2023-02-19T06:08:18.525Z,87.83
2023-02-19T06:09:18.497Z,87.83
2023-02-19T06:10:18.479Z,87.86
2023-02-19T06:11:19.026Z,87.85
2023-02-19T06:12:18.467Z,87.82
2023-02-19T06:13:18.433Z,87.83
2023-02-19T06:14:18.450Z,87.80
2023-02-19T06:15:18.414Z,87.75
2023-02-19T06:16:18.981Z,87.52
2023-02-19T06:17:18.389Z,86.99
2023-02-19T06:18:18.389Z,86.74
2023-02-19T06:19:18.381Z,86.59
2023-02-19T06:20:18.384Z,86.45
2023-02-19T06:21:18.358Z,86.10
2023-02-19T06:22:18.354Z,86.04
2023-02-19T06:23:18.320Z,85.65
2023-02-19T06:24:18.536Z,85.62
2023-02-19T06:25:18.301Z,85.57
2023-02-19T06:26:18.321Z,85.36
2023-02-19T06:27:18.284Z,85.22
2023-02-19T06:28:18.293Z,84.99
2023-02-19T06:29:18.257Z,84.75
2023-02-19T06:30:18.296Z,84.74
2023-02-19T06:31:18.836Z,84.67
2023-02-19T06:32:18.441Z,84.32
2023-02-19T06:33:18.201Z,83.88
2023-02-19T06:34:18.215Z,83.86
2023-02-19T06:35:18.895Z,83.95
2023-02-19T06:36:18.952Z,84.08
2023-02-19T06:37:18.166Z,83.93
2023-02-19T06:38:18.166Z,83.69
2023-02-19T06:39:18.929Z,83.80
2023-02-19T06:40:18.937Z,84.05
2023-02-19T06:41:18.127Z,84.22
2023-02-19T06:42:18.414Z,84.50
2023-02-19T06:43:18.110Z,84.54
2023-02-19T06:44:18.137Z,84.65
2023-02-19T06:45:18.068Z,84.67
2023-02-19T06:46:18.112Z,84.54
2023-02-19T06:47:18.057Z,84.36
2023-02-19T06:48:18.245Z,84.31
2023-02-19T06:49:18.139Z,84.48
2023-02-19T06:50:18.019Z,84.86
2023-02-19T06:51:18.489Z,84.52
2023-02-19T06:52:18.020Z,84.53
2023-02-19T06:53:17.994Z,84.07
2023-02-19T06:54:17.997Z,84.24
2023-02-19T06:55:17.961Z,84.46
2023-02-19T06:56:17.956Z,84.58
2023-02-19T06:57:17.932Z,84.68
2023-02-19T06:58:17.932Z,84.65
2023-02-19T06:59:17.941Z,84.70
2023-02-19T07:00:17.947Z,84.75
2023-02-19T07:01:17.931Z,84.83
2023-02-19T07:02:17.887Z,84.87
2023-02-19T07:03:17.869Z,84.87
2023-02-19T07:04:17.915Z,84.94
2023-02-19T07:05:17.839Z,84.96
2023-02-19T07:06:17.836Z,84.82
2023-02-19T07:07:17.963Z,84.69
2023-02-19T07:08:17.826Z,84.66
2023-02-19T07:09:17.808Z,84.72
2023-02-19T07:10:17.794Z,84.75
2023-02-19T07:11:17.946Z,84.77
2023-02-19T07:12:17.776Z,84.72
2023-02-19T07:13:17.744Z,84.63
2023-02-19T07:14:17.748Z,84.63
2023-02-19T07:15:17.950Z,84.69
2023-02-19T07:16:17.749Z,84.64
2023-02-19T07:17:17.695Z,84.63
2023-02-19T07:18:17.695Z,84.64
2023-02-19T07:19:17.678Z,84.65
2023-02-19T07:20:17.697Z,84.65
2023-02-19T07:21:17.636Z,84.72
2023-02-19T07:22:17.647Z,84.79
2023-02-19T07:23:17.958Z,84.84
2023-02-19T07:24:17.630Z,84.84
2023-02-19T07:25:17.612Z,84.59
2023-02-19T07:26:17.966Z,84.62
2023-02-19T07:27:17.580Z,84.92
2023-02-19T07:28:17.594Z,84.92
2023-02-19T07:29:17.564Z,84.71
2023-02-19T07:30:17.595Z,84.55
2023-02-19T07:31:17.723Z,84.52
2023-02-19T07:32:17.561Z,84.24
2023-02-19T07:33:17.505Z,84.14
2023-02-19T07:34:17.531Z,84.13
2023-02-19T07:35:17.484Z,84.15
2023-02-19T07:36:17.508Z,84.21
2023-02-19T07:37:17.457Z,84.12
2023-02-19T07:38:17.459Z,83.85
2023-02-19T07:39:17.885Z,83.80
2023-02-19T07:40:17.919Z,83.78
2023-02-19T07:41:17.423Z,83.55
2023-02-19T07:42:17.941Z,83.50
2023-02-19T07:43:17.392Z,83.57
2023-02-19T07:44:17.394Z,83.34
2023-02-19T07:45:17.381Z,83.52
2023-02-19T07:46:17.393Z,83.63
2023-02-19T07:47:17.483Z,83.70
2023-02-19T07:48:17.351Z,83.67
2023-02-19T07:49:17.334Z,83.69
2023-02-19T07:50:17.335Z,83.33
2023-02-19T07:51:17.323Z,83.24
2023-02-19T07:52:17.312Z,83.29
2023-02-19T07:53:17.283Z,83.23
2023-02-19T07:54:17.288Z,83.25
2023-02-19T07:55:17.758Z,82.79
2023-02-19T07:56:17.811Z,82.91
2023-02-19T07:57:17.233Z,82.96
2023-02-19T07:58:17.226Z,83.12
2023-02-19T07:59:17.226Z,83.24
2023-02-19T08:00:17.222Z,83.14
2023-02-19T08:01:17.260Z,83.02
2023-02-19T08:02:17.219Z,83.14
2023-02-19T08:03:18.012Z,83.26
2023-02-19T08:04:17.169Z,83.46
2023-02-19T08:05:17.137Z,83.54
2023-02-19T08:06:17.140Z,83.68
2023-02-19T08:07:17.124Z,83.44
2023-02-19T08:08:17.112Z,83.67
2023-02-19T08:09:17.082Z,83.88
2023-02-19T08:10:17.084Z,83.56
2023-02-19T08:11:18.002Z,83.37
2023-02-19T08:12:17.995Z,83.24
2023-02-19T08:13:17.034Z,83.23
2023-02-19T08:14:17.044Z,83.18
2023-02-19T08:15:17.018Z,83.23
2023-02-19T08:16:24.119Z,83.21
2023-02-19T08:17:18.100Z,83.31
2023-02-19T08:18:16.992Z,83.31
2023-02-19T08:19:17.007Z,83.11
2023-02-19T08:20:16.968Z,83.22
2023-02-19T08:21:16.947Z,83.47
2023-02-19T08:22:16.950Z,83.37
2023-02-19T08:23:16.933Z,83.04
2023-02-19T08:24:16.938Z,82.95
2023-02-19T08:25:16.910Z,82.92
2023-02-19T08:26:16.918Z,82.80
2023-02-19T08:27:16.924Z,82.83
2023-02-19T08:28:16.874Z,82.87
2023-02-19T08:29:16.852Z,82.96
2023-02-19T08:30:16.904Z,82.76
2023-02-19T08:31:16.925Z,82.19
2023-02-19T08:32:16.876Z,82.00
2023-02-19T08:33:16.825Z,82.27
2023-02-19T08:34:16.816Z,82.67
2023-02-19T08:35:16.810Z,82.46
2023-02-19T08:36:16.786Z,81.90
2023-02-19T08:37:16.744Z,81.60
2023-02-19T08:38:16.777Z,81.69
2023-02-19T08:39:16.858Z,81.77
2023-02-19T08:40:16.721Z,81.41
2023-02-19T08:41:16.707Z,81.48
2023-02-19T08:42:16.717Z,82.10
2023-02-19T08:43:16.684Z,81.99
2023-02-19T08:44:16.714Z,82.25
2023-02-19T08:45:16.655Z,82.43
2023-02-19T08:46:16.688Z,82.22
2023-02-19T08:47:16.638Z,82.43
2023-02-19T08:48:16.636Z,82.54
2023-02-19T08:49:16.634Z,82.62
2023-02-19T08:50:16.609Z,82.48
2023-02-19T08:51:16.610Z,82.53
2023-02-19T08:52:16.591Z,82.76
2023-02-19T08:53:16.571Z,82.82
2023-02-19T08:54:16.586Z,82.79
2023-02-19T08:55:16.538Z,82.92
2023-02-19T08:56:16.534Z,83.19
2023-02-19T08:57:16.640Z,83.37
2023-02-19T08:58:16.542Z,83.47
2023-02-19T08:59:16.504Z,83.29
2023-02-19T09:00:16.511Z,83.29
2023-02-19T09:01:16.534Z,83.26
2023-02-19T09:02:16.469Z,83.37
2023-02-19T09:03:16.437Z,83.39
2023-02-19T09:04:16.479Z,83.45
2023-02-19T09:05:16.418Z,83.49
2023-02-19T09:06:16.409Z,83.09
2023-02-19T09:07:16.773Z,83.00
2023-02-19T09:08:16.382Z,83.11
2023-02-19T09:09:16.403Z,83.05
2023-02-19T09:10:16.369Z,82.92
2023-02-19T09:11:16.375Z,82.88
2023-02-19T09:12:16.337Z,82.81
2023-02-19T09:13:16.343Z,82.91
2023-02-19T09:14:16.339Z,82.95
2023-02-19T09:15:16.515Z,82.63
2023-02-19T09:16:16.291Z,82.02
2023-02-19T09:17:16.287Z,82.15
2023-02-19T09:18:16.265Z,82.24
2023-02-19T09:19:16.286Z,81.91
2023-02-19T09:20:16.267Z,81.86
2023-02-19T09:21:16.275Z,82.14
2023-02-19T09:22:16.237Z,82.07
2023-02-19T09:23:16.766Z,82.16
2023-02-19T09:24:16.220Z,81.78
2023-02-19T09:25:16.219Z,81.54
2023-02-19T09:26:16.178Z,81.25
2023-02-19T09:27:16.182Z,81.08
2023-02-19T09:28:16.145Z,80.93
2023-02-19T09:29:16.158Z,80.65
2023-02-19T09:30:16.197Z,80.64
2023-02-19T09:31:16.942Z,81.11
2023-02-19T09:32:18.722Z,81.67
2023-02-19T09:33:16.112Z,81.71
2023-02-19T09:34:16.076Z,81.52
2023-02-19T09:35:16.101Z,81.69
2023-02-19T09:36:16.122Z,81.67
2023-02-19T09:37:16.070Z,81.66
2023-02-19T09:38:16.041Z,81.15
2023-02-19T09:39:16.823Z,80.63
2023-02-19T09:40:16.023Z,80.65
2023-02-19T09:41:16.066Z,80.38
2023-02-19T09:42:16.064Z,80.00
2023-02-19T09:43:16.006Z,79.90
2023-02-19T09:44:15.976Z,79.92
2023-02-19T09:45:16.002Z,79.96
2023-02-19T09:46:15.992Z,80.29
2023-02-19T09:47:16.092Z,80.09
2023-02-19T09:48:15.919Z,79.76
2023-02-19T09:49:15.948Z,79.96
2023-02-19T09:50:15.903Z,79.98
2023-02-19T09:51:15.914Z,79.66
2023-02-19T09:52:15.870Z,78.84
2023-02-19T09:53:15.876Z,78.75
2023-02-19T09:54:15.852Z,78.97
2023-02-19T09:55:16.081Z,78.77
2023-02-19T09:56:15.842Z,77.98
2023-02-19T09:57:15.852Z,77.60
2023-02-19T09:58:15.800Z,77.74
2023-02-19T09:59:15.806Z,77.42
2023-02-19T10:00:15.771Z,77.51
2023-02-19T10:01:15.847Z,77.47
2023-02-19T10:02:15.759Z,76.88
2023-02-19T10:03:16.028Z,77.72
2023-02-19T10:04:15.727Z,77.90
2023-02-19T10:05:15.773Z,76.98
2023-02-19T10:06:15.722Z,77.36
2023-02-19T10:07:15.737Z,77.83
2023-02-19T10:08:15.690Z,78.15
2023-02-19T10:09:15.688Z,78.13
2023-02-19T10:10:15.666Z,78.01
2023-02-19T10:11:15.728Z,77.84
2023-02-19T10:12:15.640Z,78.08
2023-02-19T10:13:15.629Z,77.71
2023-02-19T10:14:15.627Z,77.51
2023-02-19T10:15:15.621Z,76.87
2023-02-19T10:16:15.667Z,76.43
2023-02-19T10:17:15.591Z,75.88
2023-02-19T10:18:15.559Z,75.47
2023-02-19T10:19:16.097Z,75.80
2023-02-19T10:20:15.541Z,76.45
2023-02-19T10:21:15.545Z,76.97
2023-02-19T10:22:15.531Z,77.07
2023-02-19T10:23:15.523Z,77.16
2023-02-19T10:24:15.511Z,77.34
2023-02-19T10:25:15.508Z,77.64
2023-02-19T10:26:15.456Z,77.67
2023-02-19T10:27:15.550Z,77.57
2023-02-19T10:28:15.450Z,77.58
2023-02-19T10:29:15.458Z,77.54
2023-02-19T10:30:15.469Z,77.44
2023-02-19T10:31:15.791Z,77.62
2023-02-19T10:32:15.451Z,77.89
2023-02-19T10:33:15.414Z,77.58
2023-02-19T10:34:15.375Z,77.82
2023-02-19T10:35:15.629Z,77.81
2023-02-19T10:36:15.364Z,77.60
2023-02-19T10:37:15.524Z,77.37
2023-02-19T10:38:15.335Z,77.11
2023-02-19T10:39:15.335Z,76.82
2023-02-19T10:40:15.337Z,77.09
2023-02-19T10:41:15.323Z,76.82
2023-02-19T10:42:15.302Z,77.22
2023-02-19T10:43:15.312Z,77.12
2023-02-19T10:44:15.252Z,77.31
2023-02-19T10:45:15.277Z,77.30
2023-02-19T10:46:15.251Z,77.40
2023-02-19T10:47:15.240Z,76.94
2023-02-19T10:48:15.244Z,77.28
2023-02-19T10:49:15.220Z,77.47
2023-02-19T10:50:15.205Z,76.64
2023-02-19T10:51:15.567Z,76.37
2023-02-19T10:52:15.171Z,76.66
2023-02-19T10:53:15.634Z,77.39
2023-02-19T10:54:15.151Z,77.41
2023-02-19T10:55:15.152Z,77.45
2023-02-19T10:56:15.139Z,77.72
2023-02-19T10:57:15.145Z,77.48
2023-02-19T10:58:15.115Z,77.67
2023-02-19T10:59:15.135Z,77.80
2023-02-19T11:00:15.121Z,77.91
2023-02-19T11:01:15.100Z,76.85
2023-02-19T11:02:15.114Z,76.83
2023-02-19T11:03:15.055Z,76.81
2023-02-19T11:04:15.055Z,76.69
2023-02-19T11:05:15.173Z,76.21
2023-02-19T11:06:15.102Z,76.38
2023-02-19T11:07:15.142Z,75.75
2023-02-19T11:08:14.987Z,75.45
2023-02-19T11:09:15.856Z,74.95
2023-02-19T11:10:15.124Z,74.41
2023-02-19T11:11:14.971Z,74.56
2023-02-19T11:12:15.212Z,74.51
2023-02-19T11:13:15.980Z,73.92
2023-02-19T11:14:15.883Z,73.57
2023-02-19T11:15:14.926Z,73.56
2023-02-19T11:16:14.911Z,74.28
2023-02-19T11:17:14.926Z,73.82
2023-02-19T11:18:14.879Z,73.91
2023-02-19T11:19:14.874Z,73.87
2023-02-19T11:20:14.863Z,74.28
2023-02-19T11:21:14.847Z,74.16
2023-02-19T11:22:14.840Z,73.69
2023-02-19T11:23:15.155Z,73.94
2023-02-19T11:24:14.797Z,74.25
2023-02-19T11:25:15.239Z,74.79
2023-02-19T11:26:15.134Z,75.50
2023-02-19T11:27:14.778Z,75.72
2023-02-19T11:28:14.748Z,75.70
2023-02-19T11:29:14.752Z,75.74
2023-02-19T11:30:14.791Z,76.02
2023-02-19T11:31:15.262Z,75.85
2023-02-19T11:32:14.862Z,75.19
2023-02-19T11:33:14.735Z,75.79
2023-02-19T11:34:14.678Z,76.08
2023-02-19T11:35:14.973Z,76.01
2023-02-19T11:36:14.681Z,76.08
2023-02-19T11:37:14.781Z,76.51
2023-02-19T11:38:14.647Z,76.79
2023-02-19T11:39:15.087Z,77.51
2023-02-19T11:40:14.620Z,78.46
2023-02-19T11:41:14.652Z,79.05
2023-02-19T11:42:14.661Z,79.43
2023-02-19T11:43:14.599Z,79.88
2023-02-19T11:44:14.584Z,80.87
2023-02-19T11:45:14.578Z,81.36
2023-02-19T11:46:14.562Z,81.88
2023-02-19T11:47:15.168Z,82.34
2023-02-19T11:48:14.526Z,82.61
2023-02-19T11:49:14.526Z,82.97
2023-02-19T11:50:14.546Z,83.24
2023-02-19T11:51:14.524Z,83.07
2023-02-19T11:52:14.494Z,83.14
2023-02-19T11:53:14.488Z,83.51
2023-02-19T11:54:14.445Z,84.05
2023-02-19T11:55:15.171Z,84.34
2023-02-19T11:56:15.166Z,84.39
2023-02-19T11:57:14.458Z,84.54
2023-02-19T11:58:14.421Z,84.84
2023-02-19T11:59:14.427Z,84.87
2023-02-19T12:00:14.522Z,84.88
2023-02-19T12:01:14.419Z,85.08
2023-02-19T12:02:14.366Z,85.07
2023-02-19T12:03:14.481Z,85.15
2023-02-19T12:04:14.356Z,85.24
2023-02-19T12:05:14.350Z,85.38
2023-02-19T12:06:14.304Z,85.28
2023-02-19T12:07:16.484Z,84.17
2023-02-19T12:08:14.285Z,84.19
2023-02-19T12:09:14.312Z,84.39
2023-02-19T12:10:14.262Z,84.79
2023-02-19T12:11:14.403Z,84.95
2023-02-19T12:12:14.253Z,84.83
2023-02-19T12:13:14.242Z,84.40
2023-02-19T12:14:14.834Z,84.58
2023-02-19T12:15:14.202Z,84.92
2023-02-19T12:16:14.363Z,85.11
2023-02-19T12:17:14.341Z,85.30
2023-02-19T12:18:14.161Z,85.39
2023-02-19T12:19:14.205Z,85.67
2023-02-19T12:20:14.193Z,85.74
2023-02-19T12:21:14.154Z,85.82
2023-02-19T12:22:14.133Z,85.75
2023-02-19T12:23:14.124Z,85.77
2023-02-19T12:24:14.094Z,85.71
2023-02-19T12:25:14.135Z,85.71
2023-02-19T12:26:14.529Z,85.85
2023-02-19T12:27:14.203Z,86.03
2023-02-19T12:28:14.047Z,86.17
2023-02-19T12:29:14.051Z,86.17
2023-02-19T12:30:14.736Z,86.40
2023-02-19T12:31:14.080Z,86.53
2023-02-19T12:32:13.993Z,86.76
2023-02-19T12:33:14.013Z,86.73
2023-02-19T12:34:13.991Z,86.58
2023-02-19T12:35:14.186Z,86.60
2023-02-19T12:36:14.031Z,86.51
2023-02-19T12:37:13.955Z,86.47
2023-02-19T12:38:14.890Z,86.19
2023-02-19T12:39:14.194Z,86.21
2023-02-19T12:40:13.908Z,86.31
2023-02-19T12:41:14.705Z,86.13
2023-02-19T12:42:14.202Z,86.31
2023-02-19T12:43:14.191Z,86.39
2023-02-19T12:44:14.192Z,86.20
2023-02-19T12:45:13.863Z,86.06
2023-02-19T12:46:14.208Z,85.76
2023-02-19T12:47:13.857Z,85.38
2023-02-19T12:48:13.814Z,85.53
2023-02-19T12:49:13.952Z,85.42
2023-02-19T12:50:13.994Z,85.22
2023-02-19T12:51:14.035Z,84.70
2023-02-19T12:52:13.791Z,84.85